sensor_id;sensor_type;location;lat;lon;timestamp;P1;durP1;ratioP1;P2;durP2;ratioP2
359;SDS011;168;48.872;9.226;2022-07-29T00:00:41;7.40;;;6.90;;
359;SDS011;168;48.872;9.226;2022-07-29T00:03:29;6.97;;;6.33;;
359;SDS011;168;48.872;9.226;2022-07-29T00:06:00;7.47;;;6.87;;
359;SDS011;168;48.872;9.226;2022-07-29T00:08:32;7.07;;;6.50;;
359;SDS011;168;48.872;9.226;2022-07-29T00:11:01;7.20;;;6.70;;
359;SDS011;168;48.872;9.226;2022-07-29T00:13:30;7.43;;;6.90;;
359;SDS011;168;48.872;9.226;2022-07-29T00:16:12;8.63;;;7.77;;
359;SDS011;168;48.872;9.226;2022-07-29T00:18:50;8.40;;;7.60;;
359;SDS011;168;48.872;9.226;2022-07-29T00:24:17;8.13;;;7.53;;
359;SDS011;168;48.872;9.226;2022-07-29T00:26:53;8.63;;;8.03;;
359;SDS011;168;48.872;9.226;2022-07-29T00:42:31;8.70;;;8.10;;
359;SDS011;168;48.872;9.226;2022-07-29T00:45:08;8.60;;;7.80;;
359;SDS011;168;48.872;9.226;2022-07-29T00:47:36;10.17;;;9.33;;
359;SDS011;168;48.872;9.226;2022-07-29T00:50:04;9.37;;;8.57;;
359;SDS011;168;48.872;9.226;2022-07-29T00:52:33;8.30;;;7.70;;
359;SDS011;168;48.872;9.226;2022-07-29T00:55:03;8.77;;;8.17;;
359;SDS011;168;48.872;9.226;2022-07-29T00:57:33;8.90;;;8.20;;
359;SDS011;168;48.872;9.226;2022-07-29T01:00:01;8.20;;;7.60;;
359;SDS011;168;48.872;9.226;2022-07-29T01:02:30;8.67;;;7.97;;
359;SDS011;168;48.872;9.226;2022-07-29T01:04:57;9.00;;;8.30;;
359;SDS011;168;48.872;9.226;2022-07-29T01:07:25;8.60;;;8.00;;
359;SDS011;168;48.872;9.226;2022-07-29T01:09:54;9.50;;;8.80;;
359;SDS011;168;48.872;9.226;2022-07-29T01:12:23;8.87;;;8.27;;
359;SDS011;168;48.872;9.226;2022-07-29T01:14:54;9.77;;;8.93;;
359;SDS011;168;48.872;9.226;2022-07-29T01:17:24;9.63;;;8.77;;
359;SDS011;168;48.872;9.226;2022-07-29T01:19:56;10.30;;;9.53;;
359;SDS011;168;48.872;9.226;2022-07-29T01:22:37;8.97;;;8.27;;
359;SDS011;168;48.872;9.226;2022-07-29T01:25:45;9.37;;;8.77;;
359;SDS011;168;48.872;9.226;2022-07-29T01:28:34;9.90;;;9.20;;
359;SDS011;168;48.872;9.226;2022-07-29T01:31:06;10.30;;;9.50;;
359;SDS011;168;48.872;9.226;2022-07-29T01:33:37;10.63;;;9.70;;
359;SDS011;168;48.872;9.226;2022-07-29T01:36:18;10.10;;;9.50;;
359;SDS011;168;48.872;9.226;2022-07-29T01:38:52;9.90;;;9.00;;
359;SDS011;168;48.872;9.226;2022-07-29T01:41:25;10.63;;;9.83;;
359;SDS011;168;48.872;9.226;2022-07-29T01:43:59;10.47;;;9.57;;
359;SDS011;168;48.872;9.226;2022-07-29T01:46:31;10.20;;;9.50;;
359;SDS011;168;48.872;9.226;2022-07-29T01:49:04;10.10;;;9.40;;
359;SDS011;168;48.872;9.226;2022-07-29T01:51:38;9.30;;;8.60;;
359;SDS011;168;48.872;9.226;2022-07-29T01:54:10;10.30;;;9.40;;
359;SDS011;168;48.872;9.226;2022-07-29T01:56:42;9.80;;;9.10;;
359;SDS011;168;48.872;9.226;2022-07-29T01:59:13;9.67;;;8.97;;
359;SDS011;168;48.872;9.226;2022-07-29T02:01:42;9.83;;;9.03;;
359;SDS011;168;48.872;9.226;2022-07-29T02:04:12;9.87;;;9.13;;
359;SDS011;168;48.872;9.226;2022-07-29T02:06:41;10.33;;;9.63;;
359;SDS011;168;48.872;9.226;2022-07-29T02:09:11;10.70;;;9.70;;
359;SDS011;168;48.872;9.226;2022-07-29T02:11:41;10.90;;;10.00;;
359;SDS011;168;48.872;9.226;2022-07-29T02:14:16;11.10;;;10.20;;
359;SDS011;168;48.872;9.226;2022-07-29T02:16:45;10.70;;;9.80;;
359;SDS011;168;48.872;9.226;2022-07-29T02:19:15;11.23;;;10.47;;
359;SDS011;168;48.872;9.226;2022-07-29T02:21:45;9.70;;;8.90;;
359;SDS011;168;48.872;9.226;2022-07-29T02:24:14;10.13;;;9.43;;
359;SDS011;168;48.872;9.226;2022-07-29T02:26:45;10.33;;;9.63;;
359;SDS011;168;48.872;9.226;2022-07-29T02:29:13;10.73;;;9.70;;
359;SDS011;168;48.872;9.226;2022-07-29T02:31:43;10.70;;;10.00;;
359;SDS011;168;48.872;9.226;2022-07-29T02:34:12;11.70;;;10.80;;
359;SDS011;168;48.872;9.226;2022-07-29T02:36:42;10.90;;;10.07;;
359;SDS011;168;48.872;9.226;2022-07-29T02:39:11;11.30;;;10.20;;
359;SDS011;168;48.872;9.226;2022-07-29T02:41:41;11.20;;;10.30;;
359;SDS011;168;48.872;9.226;2022-07-29T02:44:11;11.93;;;10.90;;
359;SDS011;168;48.872;9.226;2022-07-29T02:46:43;10.63;;;9.90;;
359;SDS011;168;48.872;9.226;2022-07-29T02:49:15;11.47;;;10.57;;
359;SDS011;168;48.872;9.226;2022-07-29T02:51:49;11.50;;;10.63;;
359;SDS011;168;48.872;9.226;2022-07-29T02:54:22;11.97;;;10.90;;
359;SDS011;168;48.872;9.226;2022-07-29T02:56:54;11.63;;;10.63;;
359;SDS011;168;48.872;9.226;2022-07-29T02:59:24;11.47;;;10.67;;
359;SDS011;168;48.872;9.226;2022-07-29T03:01:55;11.87;;;10.87;;
359;SDS011;168;48.872;9.226;2022-07-29T03:04:25;11.90;;;10.83;;
359;SDS011;168;48.872;9.226;2022-07-29T03:06:55;12.03;;;11.20;;
359;SDS011;168;48.872;9.226;2022-07-29T03:09:25;12.27;;;11.37;;
359;SDS011;168;48.872;9.226;2022-07-29T03:11:54;10.73;;;10.03;;
359;SDS011;168;48.872;9.226;2022-07-29T03:14:23;11.60;;;10.60;;
359;SDS011;168;48.872;9.226;2022-07-29T03:16:51;10.80;;;9.97;;
359;SDS011;168;48.872;9.226;2022-07-29T03:19:20;11.00;;;10.20;;
359;SDS011;168;48.872;9.226;2022-07-29T03:21:48;12.00;;;11.10;;
359;SDS011;168;48.872;9.226;2022-07-29T03:24:29;11.80;;;10.90;;
359;SDS011;168;48.872;9.226;2022-07-29T03:26:57;11.77;;;10.87;;
359;SDS011;168;48.872;9.226;2022-07-29T03:29:25;12.20;;;11.27;;
359;SDS011;168;48.872;9.226;2022-07-29T03:31:53;11.77;;;10.80;;
359;SDS011;168;48.872;9.226;2022-07-29T03:34:22;11.63;;;10.73;;
359;SDS011;168;48.872;9.226;2022-07-29T03:36:49;11.20;;;10.40;;
359;SDS011;168;48.872;9.226;2022-07-29T03:39:18;11.17;;;10.43;;
359;SDS011;168;48.872;9.226;2022-07-29T03:41:49;11.43;;;10.43;;
359;SDS011;168;48.872;9.226;2022-07-29T03:44:18;11.10;;;10.10;;
359;SDS011;168;48.872;9.226;2022-07-29T03:46:48;10.70;;;9.87;;
359;SDS011;168;48.872;9.226;2022-07-29T03:49:17;11.90;;;11.00;;
359;SDS011;168;48.872;9.226;2022-07-29T03:51:48;10.97;;;10.23;;
359;SDS011;168;48.872;9.226;2022-07-29T03:54:15;12.50;;;11.47;;
359;SDS011;168;48.872;9.226;2022-07-29T03:56:43;10.67;;;9.87;;
359;SDS011;168;48.872;9.226;2022-07-29T03:59:13;10.30;;;9.60;;
359;SDS011;168;48.872;9.226;2022-07-29T04:01:42;10.90;;;10.00;;
359;SDS011;168;48.872;9.226;2022-07-29T04:04:11;11.40;;;10.30;;
359;SDS011;168;48.872;9.226;2022-07-29T04:06:39;10.97;;;10.07;;
359;SDS011;168;48.872;9.226;2022-07-29T04:09:09;11.57;;;10.77;;
359;SDS011;168;48.872;9.226;2022-07-29T04:11:37;10.37;;;9.60;;
359;SDS011;168;48.872;9.226;2022-07-29T04:14:05;8.77;;;8.07;;
359;SDS011;168;48.872;9.226;2022-07-29T04:16:33;10.83;;;10.07;;
359;SDS011;168;48.872;9.226;2022-07-29T04:19:00;11.27;;;10.37;;
359;SDS011;168;48.872;9.226;2022-07-29T04:21:28;11.23;;;10.30;;
359;SDS011;168;48.872;9.226;2022-07-29T04:23:55;11.20;;;10.40;;
359;SDS011;168;48.872;9.226;2022-07-29T04:26:24;10.80;;;10.00;;
359;SDS011;168;48.872;9.226;2022-07-29T04:28:51;10.93;;;10.13;;
359;SDS011;168;48.872;9.226;2022-07-29T04:31:19;10.60;;;9.50;;
359;SDS011;168;48.872;9.226;2022-07-29T04:33:46;9.50;;;8.70;;
359;SDS011;168;48.872;9.226;2022-07-29T04:36:13;12.10;;;11.20;;
359;SDS011;168;48.872;9.226;2022-07-29T04:38:41;10.57;;;9.77;;
359;SDS011;168;48.872;9.226;2022-07-29T04:41:08;10.63;;;9.73;;
359;SDS011;168;48.872;9.226;2022-07-29T04:43:37;10.60;;;9.80;;
359;SDS011;168;48.872;9.226;2022-07-29T04:46:05;10.87;;;10.07;;
359;SDS011;168;48.872;9.226;2022-07-29T04:48:33;11.60;;;10.70;;
359;SDS011;168;48.872;9.226;2022-07-29T04:51:00;10.27;;;9.50;;
359;SDS011;168;48.872;9.226;2022-07-29T04:53:28;11.20;;;10.30;;
359;SDS011;168;48.872;9.226;2022-07-29T04:55:56;11.23;;;10.33;;
359;SDS011;168;48.872;9.226;2022-07-29T04:58:24;11.13;;;10.20;;
359;SDS011;168;48.872;9.226;2022-07-29T05:00:53;11.83;;;10.80;;
359;SDS011;168;48.872;9.226;2022-07-29T05:03:20;11.53;;;10.60;;
359;SDS011;168;48.872;9.226;2022-07-29T05:05:48;11.33;;;10.43;;
359;SDS011;168;48.872;9.226;2022-07-29T05:08:15;10.50;;;9.53;;
359;SDS011;168;48.872;9.226;2022-07-29T05:10:43;10.47;;;9.67;;
359;SDS011;168;48.872;9.226;2022-07-29T05:13:10;11.47;;;10.27;;
359;SDS011;168;48.872;9.226;2022-07-29T05:15:38;9.63;;;8.80;;
359;SDS011;168;48.872;9.226;2022-07-29T05:18:07;9.63;;;8.73;;
359;SDS011;168;48.872;9.226;2022-07-29T05:20:35;9.43;;;8.80;;
359;SDS011;168;48.872;9.226;2022-07-29T05:23:03;9.83;;;9.03;;
359;SDS011;168;48.872;9.226;2022-07-29T05:25:31;8.47;;;7.77;;
359;SDS011;168;48.872;9.226;2022-07-29T05:27:58;9.27;;;8.47;;
359;SDS011;168;48.872;9.226;2022-07-29T05:30:26;8.83;;;8.10;;
359;SDS011;168;48.872;9.226;2022-07-29T05:32:53;8.37;;;7.77;;
359;SDS011;168;48.872;9.226;2022-07-29T05:35:22;9.27;;;8.40;;
359;SDS011;168;48.872;9.226;2022-07-29T05:37:49;8.20;;;7.50;;
359;SDS011;168;48.872;9.226;2022-07-29T05:40:17;8.80;;;8.10;;
359;SDS011;168;48.872;9.226;2022-07-29T05:42:44;8.63;;;7.93;;
359;SDS011;168;48.872;9.226;2022-07-29T05:45:11;8.80;;;7.90;;
359;SDS011;168;48.872;9.226;2022-07-29T05:47:39;8.53;;;7.83;;
359;SDS011;168;48.872;9.226;2022-07-29T05:50:06;9.20;;;8.40;;
359;SDS011;168;48.872;9.226;2022-07-29T05:52:36;9.37;;;7.87;;
359;SDS011;168;48.872;9.226;2022-07-29T05:55:04;8.20;;;7.53;;
359;SDS011;168;48.872;9.226;2022-07-29T05:57:32;7.40;;;6.90;;
359;SDS011;168;48.872;9.226;2022-07-29T06:00:00;7.33;;;6.73;;
359;SDS011;168;48.872;9.226;2022-07-29T06:02:27;6.97;;;6.33;;
359;SDS011;168;48.872;9.226;2022-07-29T06:04:55;7.53;;;6.53;;
359;SDS011;168;48.872;9.226;2022-07-29T06:07:23;11.73;;;6.97;;
359;SDS011;168;48.872;9.226;2022-07-29T06:09:52;7.23;;;6.60;;
359;SDS011;168;48.872;9.226;2022-07-29T06:12:19;7.10;;;6.60;;
359;SDS011;168;48.872;9.226;2022-07-29T06:14:46;7.40;;;6.90;;
359;SDS011;168;48.872;9.226;2022-07-29T06:17:15;7.20;;;6.40;;
359;SDS011;168;48.872;9.226;2022-07-29T06:19:42;6.67;;;6.07;;
359;SDS011;168;48.872;9.226;2022-07-29T06:22:10;6.93;;;6.43;;
359;SDS011;168;48.872;9.226;2022-07-29T06:24:37;6.70;;;6.23;;
359;SDS011;168;48.872;9.226;2022-07-29T06:27:10;5.70;;;5.30;;
359;SDS011;168;48.872;9.226;2022-07-29T06:29:38;6.90;;;6.37;;
359;SDS011;168;48.872;9.226;2022-07-29T06:32:05;5.73;;;5.33;;
359;SDS011;168;48.872;9.226;2022-07-29T06:34:34;6.07;;;5.67;;
359;SDS011;168;48.872;9.226;2022-07-29T06:37:05;6.23;;;5.83;;
359;SDS011;168;48.872;9.226;2022-07-29T06:39:33;5.80;;;5.50;;
359;SDS011;168;48.872;9.226;2022-07-29T06:42:01;6.07;;;5.50;;
359;SDS011;168;48.872;9.226;2022-07-29T06:44:31;6.33;;;5.90;;
359;SDS011;168;48.872;9.226;2022-07-29T06:47:00;6.30;;;5.57;;
359;SDS011;168;48.872;9.226;2022-07-29T06:49:27;6.27;;;5.87;;
359;SDS011;168;48.872;9.226;2022-07-29T06:51:55;5.57;;;5.07;;
359;SDS011;168;48.872;9.226;2022-07-29T06:54:23;6.47;;;5.77;;
359;SDS011;168;48.872;9.226;2022-07-29T06:56:50;5.37;;;5.00;;
359;SDS011;168;48.872;9.226;2022-07-29T06:59:17;6.03;;;5.63;;
359;SDS011;168;48.872;9.226;2022-07-29T07:01:46;5.83;;;5.43;;
359;SDS011;168;48.872;9.226;2022-07-29T07:04:14;5.60;;;5.10;;
359;SDS011;168;48.872;9.226;2022-07-29T07:06:41;5.37;;;4.97;;
359;SDS011;168;48.872;9.226;2022-07-29T07:09:09;5.60;;;5.20;;
359;SDS011;168;48.872;9.226;2022-07-29T07:11:36;5.37;;;4.87;;
359;SDS011;168;48.872;9.226;2022-07-29T07:14:04;5.53;;;5.10;;
359;SDS011;168;48.872;9.226;2022-07-29T07:16:31;5.60;;;5.10;;
359;SDS011;168;48.872;9.226;2022-07-29T07:19:01;5.53;;;5.00;;
359;SDS011;168;48.872;9.226;2022-07-29T07:21:28;5.20;;;4.80;;
359;SDS011;168;48.872;9.226;2022-07-29T07:23:56;5.40;;;5.00;;
359;SDS011;168;48.872;9.226;2022-07-29T07:26:23;5.60;;;5.10;;
359;SDS011;168;48.872;9.226;2022-07-29T07:28:51;5.03;;;4.60;;
359;SDS011;168;48.872;9.226;2022-07-29T07:31:19;5.63;;;5.13;;
359;SDS011;168;48.872;9.226;2022-07-29T07:33:46;5.23;;;4.80;;
359;SDS011;168;48.872;9.226;2022-07-29T07:36:15;5.37;;;4.87;;
359;SDS011;168;48.872;9.226;2022-07-29T07:38:42;4.90;;;4.50;;
359;SDS011;168;48.872;9.226;2022-07-29T07:41:10;4.57;;;4.27;;
359;SDS011;168;48.872;9.226;2022-07-29T07:43:37;5.20;;;4.63;;
359;SDS011;168;48.872;9.226;2022-07-29T07:46:05;4.57;;;4.20;;
359;SDS011;168;48.872;9.226;2022-07-29T07:48:32;5.83;;;5.43;;
359;SDS011;168;48.872;9.226;2022-07-29T07:51:02;5.87;;;5.40;;
359;SDS011;168;48.872;9.226;2022-07-29T07:53:31;4.70;;;4.30;;
359;SDS011;168;48.872;9.226;2022-07-29T07:55:58;4.83;;;4.43;;
359;SDS011;168;48.872;9.226;2022-07-29T07:58:26;4.60;;;4.30;;
359;SDS011;168;48.872;9.226;2022-07-29T08:00:54;5.53;;;5.03;;
359;SDS011;168;48.872;9.226;2022-07-29T08:03:21;5.40;;;4.90;;
359;SDS011;168;48.872;9.226;2022-07-29T08:05:49;6.17;;;5.00;;
359;SDS011;168;48.872;9.226;2022-07-29T08:08:17;6.00;;;4.93;;
359;SDS011;168;48.872;9.226;2022-07-29T08:10:46;5.37;;;4.90;;
359;SDS011;168;48.872;9.226;2022-07-29T08:13:21;5.67;;;5.27;;
359;SDS011;168;48.872;9.226;2022-07-29T08:15:50;4.83;;;4.50;;
359;SDS011;168;48.872;9.226;2022-07-29T08:18:23;5.40;;;5.10;;
359;SDS011;168;48.872;9.226;2022-07-29T08:20:52;5.70;;;5.30;;
359;SDS011;168;48.872;9.226;2022-07-29T08:23:20;4.90;;;4.50;;
359;SDS011;168;48.872;9.226;2022-07-29T08:25:49;4.53;;;4.00;;
359;SDS011;168;48.872;9.226;2022-07-29T08:28:17;4.90;;;4.50;;
359;SDS011;168;48.872;9.226;2022-07-29T08:30:45;5.07;;;4.77;;
359;SDS011;168;48.872;9.226;2022-07-29T08:33:12;6.53;;;6.00;;
359;SDS011;168;48.872;9.226;2022-07-29T08:35:40;7.17;;;6.67;;
359;SDS011;168;48.872;9.226;2022-07-29T08:38:08;7.07;;;6.57;;
359;SDS011;168;48.872;9.226;2022-07-29T08:40:35;6.87;;;6.37;;
359;SDS011;168;48.872;9.226;2022-07-29T08:43:05;6.90;;;6.50;;
359;SDS011;168;48.872;9.226;2022-07-29T08:45:41;5.57;;;5.20;;
359;SDS011;168;48.872;9.226;2022-07-29T08:48:11;6.13;;;5.70;;
359;SDS011;168;48.872;9.226;2022-07-29T08:50:39;7.00;;;6.30;;
359;SDS011;168;48.872;9.226;2022-07-29T08:53:09;6.50;;;6.10;;
359;SDS011;168;48.872;9.226;2022-07-29T08:55:38;5.30;;;4.80;;
359;SDS011;168;48.872;9.226;2022-07-29T08:58:13;5.53;;;5.23;;
359;SDS011;168;48.872;9.226;2022-07-29T09:00:42;7.00;;;6.60;;
359;SDS011;168;48.872;9.226;2022-07-29T09:03:11;7.07;;;6.53;;
359;SDS011;168;48.872;9.226;2022-07-29T09:05:41;7.43;;;6.83;;
359;SDS011;168;48.872;9.226;2022-07-29T09:08:09;7.40;;;6.90;;
359;SDS011;168;48.872;9.226;2022-07-29T09:10:37;7.73;;;6.93;;
359;SDS011;168;48.872;9.226;2022-07-29T09:13:05;7.20;;;6.33;;
359;SDS011;168;48.872;9.226;2022-07-29T09:15:34;6.57;;;6.07;;
359;SDS011;168;48.872;9.226;2022-07-29T09:18:02;8.27;;;7.57;;
359;SDS011;168;48.872;9.226;2022-07-29T09:20:29;7.17;;;6.57;;
359;SDS011;168;48.872;9.226;2022-07-29T09:23:12;9.90;;;7.70;;
359;SDS011;168;48.872;9.226;2022-07-29T09:25:40;7.90;;;7.10;;
359;SDS011;168;48.872;9.226;2022-07-29T10:14:47;7.03;;;6.53;;
359;SDS011;168;48.872;9.226;2022-07-29T10:20:33;7.63;;;6.87;;
359;SDS011;168;48.872;9.226;2022-07-29T10:34:18;7.73;;;7.03;;
359;SDS011;168;48.872;9.226;2022-07-29T10:37:46;7.83;;;7.23;;
359;SDS011;168;48.872;9.226;2022-07-29T10:40:43;7.20;;;6.50;;
359;SDS011;168;48.872;9.226;2022-07-29T10:43:45;7.37;;;6.77;;
359;SDS011;168;48.872;9.226;2022-07-29T10:46:15;7.23;;;6.63;;
359;SDS011;168;48.872;9.226;2022-07-29T10:55:14;8.00;;;7.20;;
359;SDS011;168;48.872;9.226;2022-07-29T10:57:35;8.20;;;7.63;;
359;SDS011;168;48.872;9.226;2022-07-29T11:02:55;7.70;;;7.20;;
359;SDS011;168;48.872;9.226;2022-07-29T11:05:23;7.87;;;7.27;;
359;SDS011;168;48.872;9.226;2022-07-29T11:10:52;13.67;;;12.17;;
359;SDS011;168;48.872;9.226;2022-07-29T11:13:49;15.03;;;12.83;;
359;SDS011;168;48.872;9.226;2022-07-29T11:16:20;8.80;;;8.10;;
359;SDS011;168;48.872;9.226;2022-07-29T11:21:51;8.87;;;8.17;;
359;SDS011;168;48.872;9.226;2022-07-29T11:24:22;7.67;;;7.00;;
359;SDS011;168;48.872;9.226;2022-07-29T11:27:13;8.50;;;6.90;;
359;SDS011;168;48.872;9.226;2022-07-29T11:29:49;8.97;;;8.20;;
359;SDS011;168;48.872;9.226;2022-07-29T11:32:21;7.80;;;7.30;;
359;SDS011;168;48.872;9.226;2022-07-29T11:37:38;7.57;;;6.97;;
359;SDS011;168;48.872;9.226;2022-07-29T11:40:20;8.37;;;7.57;;
359;SDS011;168;48.872;9.226;2022-07-29T11:42:48;8.73;;;8.03;;
359;SDS011;168;48.872;9.226;2022-07-29T11:45:25;9.03;;;8.23;;
359;SDS011;168;48.872;9.226;2022-07-29T11:48:15;9.00;;;8.23;;
359;SDS011;168;48.872;9.226;2022-07-29T11:50:43;8.73;;;8.13;;
359;SDS011;168;48.872;9.226;2022-07-29T11:53:13;9.20;;;8.40;;
359;SDS011;168;48.872;9.226;2022-07-29T11:55:54;9.73;;;8.93;;
359;SDS011;168;48.872;9.226;2022-07-29T11:58:25;10.63;;;9.73;;
359;SDS011;168;48.872;9.226;2022-07-29T12:00:55;11.07;;;10.17;;
359;SDS011;168;48.872;9.226;2022-07-29T12:03:24;10.07;;;9.27;;
359;SDS011;168;48.872;9.226;2022-07-29T12:05:52;10.03;;;9.23;;
359;SDS011;168;48.872;9.226;2022-07-29T12:08:25;8.10;;;7.50;;
359;SDS011;168;48.872;9.226;2022-07-29T12:10:58;8.17;;;7.47;;
359;SDS011;168;48.872;9.226;2022-07-29T12:13:26;7.37;;;6.77;;
359;SDS011;168;48.872;9.226;2022-07-29T12:16:05;10.00;;;9.00;;
359;SDS011;168;48.872;9.226;2022-07-29T12:18:33;8.90;;;8.00;;
359;SDS011;168;48.872;9.226;2022-07-29T12:21:02;7.30;;;6.80;;
359;SDS011;168;48.872;9.226;2022-07-29T12:23:30;8.27;;;7.57;;
359;SDS011;168;48.872;9.226;2022-07-29T12:25:59;7.33;;;6.60;;
359;SDS011;168;48.872;9.226;2022-07-29T12:28:40;8.73;;;7.83;;
359;SDS011;168;48.872;9.226;2022-07-29T12:31:12;5.83;;;4.60;;
359;SDS011;168;48.872;9.226;2022-07-29T12:33:40;5.07;;;4.67;;
359;SDS011;168;48.872;9.226;2022-07-29T12:36:08;3.90;;;3.60;;
359;SDS011;168;48.872;9.226;2022-07-29T12:38:36;4.80;;;4.40;;
359;SDS011;168;48.872;9.226;2022-07-29T12:41:08;4.93;;;4.20;;
359;SDS011;168;48.872;9.226;2022-07-29T12:43:36;3.30;;;3.00;;
359;SDS011;168;48.872;9.226;2022-07-29T12:46:11;3.90;;;3.50;;
359;SDS011;168;48.872;9.226;2022-07-29T12:48:42;3.47;;;3.17;;
359;SDS011;168;48.872;9.226;2022-07-29T12:51:10;3.57;;;3.27;;
359;SDS011;168;48.872;9.226;2022-07-29T12:53:39;3.70;;;3.50;;
359;SDS011;168;48.872;9.226;2022-07-29T12:56:14;3.83;;;3.50;;
359;SDS011;168;48.872;9.226;2022-07-29T12:58:42;5.20;;;3.90;;
359;SDS011;168;48.872;9.226;2022-07-29T13:01:11;4.60;;;3.50;;
359;SDS011;168;48.872;9.226;2022-07-29T13:03:46;3.70;;;3.40;;
359;SDS011;168;48.872;9.226;2022-07-29T13:06:29;4.23;;;3.83;;
359;SDS011;168;48.872;9.226;2022-07-29T13:09:03;4.63;;;4.27;;
359;SDS011;168;48.872;9.226;2022-07-29T13:11:38;4.90;;;4.30;;
359;SDS011;168;48.872;9.226;2022-07-29T13:14:07;3.93;;;3.53;;
359;SDS011;168;48.872;9.226;2022-07-29T13:19:35;4.57;;;4.27;;
359;SDS011;168;48.872;9.226;2022-07-29T13:22:08;5.13;;;4.73;;
359;SDS011;168;48.872;9.226;2022-07-29T13:24:47;6.13;;;4.93;;
359;SDS011;168;48.872;9.226;2022-07-29T13:27:17;5.30;;;4.80;;
359;SDS011;168;48.872;9.226;2022-07-29T13:29:45;5.60;;;4.73;;
359;SDS011;168;48.872;9.226;2022-07-29T13:32:14;6.90;;;5.03;;
359;SDS011;168;48.872;9.226;2022-07-29T13:34:42;5.73;;;5.23;;
359;SDS011;168;48.872;9.226;2022-07-29T13:37:10;5.47;;;4.90;;
359;SDS011;168;48.872;9.226;2022-07-29T13:39:37;5.90;;;5.40;;
359;SDS011;168;48.872;9.226;2022-07-29T13:42:06;9.23;;;6.07;;
359;SDS011;168;48.872;9.226;2022-07-29T13:44:35;5.53;;;5.00;;
359;SDS011;168;48.872;9.226;2022-07-29T13:47:03;5.30;;;4.80;;
359;SDS011;168;48.872;9.226;2022-07-29T13:49:34;6.40;;;5.83;;
359;SDS011;168;48.872;9.226;2022-07-29T13:52:02;6.30;;;5.80;;
359;SDS011;168;48.872;9.226;2022-07-29T13:54:41;6.17;;;5.70;;
359;SDS011;168;48.872;9.226;2022-07-29T13:57:09;7.27;;;6.60;;
359;SDS011;168;48.872;9.226;2022-07-29T13:59:38;7.50;;;6.90;;
359;SDS011;168;48.872;9.226;2022-07-29T14:02:08;8.20;;;7.57;;
359;SDS011;168;48.872;9.226;2022-07-29T14:04:36;7.50;;;6.90;;
359;SDS011;168;48.872;9.226;2022-07-29T14:07:06;6.80;;;6.30;;
359;SDS011;168;48.872;9.226;2022-07-29T14:09:36;6.80;;;6.27;;
359;SDS011;168;48.872;9.226;2022-07-29T14:12:07;7.67;;;7.07;;
359;SDS011;168;48.872;9.226;2022-07-29T14:14:35;7.73;;;6.93;;
359;SDS011;168;48.872;9.226;2022-07-29T14:17:04;7.33;;;6.73;;
359;SDS011;168;48.872;9.226;2022-07-29T14:19:33;7.60;;;7.00;;
359;SDS011;168;48.872;9.226;2022-07-29T14:22:03;7.40;;;6.80;;
359;SDS011;168;48.872;9.226;2022-07-29T14:24:31;6.80;;;6.30;;
359;SDS011;168;48.872;9.226;2022-07-29T14:27:01;6.73;;;6.30;;
359;SDS011;168;48.872;9.226;2022-07-29T14:29:30;7.67;;;7.13;;
359;SDS011;168;48.872;9.226;2022-07-29T14:32:07;7.03;;;6.43;;
359;SDS011;168;48.872;9.226;2022-07-29T14:34:37;7.53;;;6.77;;
359;SDS011;168;48.872;9.226;2022-07-29T14:37:05;7.03;;;6.47;;
359;SDS011;168;48.872;9.226;2022-07-29T14:39:34;6.40;;;5.80;;
359;SDS011;168;48.872;9.226;2022-07-29T14:42:05;8.23;;;7.50;;
359;SDS011;168;48.872;9.226;2022-07-29T14:44:33;7.70;;;6.70;;
359;SDS011;168;48.872;9.226;2022-07-29T14:47:00;7.03;;;6.53;;
359;SDS011;168;48.872;9.226;2022-07-29T14:49:29;7.10;;;6.50;;
359;SDS011;168;48.872;9.226;2022-07-29T14:52:00;7.73;;;7.13;;
359;SDS011;168;48.872;9.226;2022-07-29T14:54:27;6.83;;;6.23;;
359;SDS011;168;48.872;9.226;2022-07-29T14:56:55;6.97;;;6.47;;
359;SDS011;168;48.872;9.226;2022-07-29T14:59:22;7.40;;;6.80;;
359;SDS011;168;48.872;9.226;2022-07-29T15:01:50;7.73;;;7.17;;
359;SDS011;168;48.872;9.226;2022-07-29T15:04:17;8.13;;;7.50;;
359;SDS011;168;48.872;9.226;2022-07-29T15:06:50;7.80;;;7.10;;
359;SDS011;168;48.872;9.226;2022-07-29T15:09:18;8.80;;;8.10;;
359;SDS011;168;48.872;9.226;2022-07-29T15:11:45;7.80;;;7.00;;
359;SDS011;168;48.872;9.226;2022-07-29T15:14:13;8.30;;;7.50;;
359;SDS011;168;48.872;9.226;2022-07-29T15:16:40;7.83;;;7.20;;
359;SDS011;168;48.872;9.226;2022-07-29T15:19:08;9.10;;;8.20;;
359;SDS011;168;48.872;9.226;2022-07-29T15:21:36;7.70;;;7.10;;
359;SDS011;168;48.872;9.226;2022-07-29T15:24:05;9.50;;;8.80;;
359;SDS011;168;48.872;9.226;2022-07-29T15:26:33;8.73;;;8.13;;
359;SDS011;168;48.872;9.226;2022-07-29T15:29:01;8.93;;;8.03;;
359;SDS011;168;48.872;9.226;2022-07-29T15:31:30;8.80;;;7.97;;
359;SDS011;168;48.872;9.226;2022-07-29T15:33:58;8.50;;;7.80;;
359;SDS011;168;48.872;9.226;2022-07-29T15:36:26;8.23;;;7.63;;
359;SDS011;168;48.872;9.226;2022-07-29T15:38:53;7.70;;;7.10;;
359;SDS011;168;48.872;9.226;2022-07-29T15:41:23;8.27;;;7.67;;
359;SDS011;168;48.872;9.226;2022-07-29T15:43:50;8.17;;;7.57;;
359;SDS011;168;48.872;9.226;2022-07-29T15:46:20;7.93;;;7.43;;
359;SDS011;168;48.872;9.226;2022-07-29T15:49:06;8.87;;;8.17;;
359;SDS011;168;48.872;9.226;2022-07-29T15:51:34;8.30;;;7.73;;
359;SDS011;168;48.872;9.226;2022-07-29T15:54:02;8.00;;;7.50;;
359;SDS011;168;48.872;9.226;2022-07-29T15:56:32;8.43;;;7.80;;
359;SDS011;168;48.872;9.226;2022-07-29T15:59:00;7.90;;;7.20;;
359;SDS011;168;48.872;9.226;2022-07-29T16:01:28;7.07;;;6.60;;
359;SDS011;168;48.872;9.226;2022-07-29T16:03:56;8.00;;;7.47;;
359;SDS011;168;48.872;9.226;2022-07-29T16:06:24;8.57;;;7.90;;
359;SDS011;168;48.872;9.226;2022-07-29T16:08:53;8.53;;;7.80;;
359;SDS011;168;48.872;9.226;2022-07-29T16:11:28;7.30;;;6.70;;
359;SDS011;168;48.872;9.226;2022-07-29T16:14:00;7.10;;;6.60;;
359;SDS011;168;48.872;9.226;2022-07-29T16:16:44;7.90;;;7.30;;
359;SDS011;168;48.872;9.226;2022-07-29T16:19:13;8.00;;;7.20;;
359;SDS011;168;48.872;9.226;2022-07-29T16:21:44;8.60;;;8.00;;
359;SDS011;168;48.872;9.226;2022-07-29T16:24:12;8.80;;;7.90;;
359;SDS011;168;48.872;9.226;2022-07-29T16:26:42;7.13;;;6.63;;
359;SDS011;168;48.872;9.226;2022-07-29T16:29:09;8.10;;;7.40;;
359;SDS011;168;48.872;9.226;2022-07-29T16:31:37;7.50;;;7.00;;
359;SDS011;168;48.872;9.226;2022-07-29T16:34:04;7.87;;;7.17;;
359;SDS011;168;48.872;9.226;2022-07-29T16:36:31;7.30;;;6.80;;
359;SDS011;168;48.872;9.226;2022-07-29T16:38:59;7.80;;;7.30;;
359;SDS011;168;48.872;9.226;2022-07-29T16:41:28;7.77;;;7.20;;
359;SDS011;168;48.872;9.226;2022-07-29T16:43:56;7.73;;;7.13;;
359;SDS011;168;48.872;9.226;2022-07-29T16:46:24;7.00;;;6.60;;
359;SDS011;168;48.872;9.226;2022-07-29T16:48:52;7.57;;;7.00;;
359;SDS011;168;48.872;9.226;2022-07-29T16:51:20;8.40;;;7.10;;
359;SDS011;168;48.872;9.226;2022-07-29T16:53:47;7.43;;;6.83;;
359;SDS011;168;48.872;9.226;2022-07-29T16:56:15;7.60;;;7.07;;
359;SDS011;168;48.872;9.226;2022-07-29T16:58:44;7.00;;;6.50;;
359;SDS011;168;48.872;9.226;2022-07-29T17:01:13;7.83;;;7.23;;
359;SDS011;168;48.872;9.226;2022-07-29T17:03:41;8.53;;;7.83;;
359;SDS011;168;48.872;9.226;2022-07-29T17:06:22;7.20;;;6.60;;
359;SDS011;168;48.872;9.226;2022-07-29T17:08:50;7.13;;;6.63;;
359;SDS011;168;48.872;9.226;2022-07-29T17:11:17;8.20;;;7.60;;
359;SDS011;168;48.872;9.226;2022-07-29T17:13:45;8.03;;;7.33;;
359;SDS011;168;48.872;9.226;2022-07-29T17:16:13;8.07;;;7.30;;
359;SDS011;168;48.872;9.226;2022-07-29T17:18:41;8.37;;;7.67;;
359;SDS011;168;48.872;9.226;2022-07-29T17:21:08;7.73;;;6.83;;
359;SDS011;168;48.872;9.226;2022-07-29T17:23:36;7.93;;;7.40;;
359;SDS011;168;48.872;9.226;2022-07-29T17:26:03;8.07;;;7.27;;
359;SDS011;168;48.872;9.226;2022-07-29T17:28:36;9.50;;;8.53;;
359;SDS011;168;48.872;9.226;2022-07-29T17:31:04;7.80;;;7.20;;
359;SDS011;168;48.872;9.226;2022-07-29T17:33:33;7.63;;;7.10;;
359;SDS011;168;48.872;9.226;2022-07-29T17:36:01;8.70;;;8.10;;